createdAt,value
2018-06-20T00:00:22.309Z,4.80
2018-06-20T00:02:51.176Z,4.57
2018-06-20T00:05:20.124Z,9.90
2018-06-20T00:07:48.984Z,4.90
2018-06-20T00:10:17.909Z,5.73
2018-06-20T00:12:46.743Z,4.90
2018-06-20T00:15:15.555Z,5.25
2018-06-20T00:17:44.457Z,5.33
2018-06-20T00:20:13.257Z,5.27
2018-06-20T00:22:42.122Z,4.70
2018-06-20T00:25:10.995Z,4.72
2018-06-20T00:27:40.153Z,5.40
2018-06-20T00:30:09.016Z,4.80
2018-06-20T00:32:38.328Z,5.10
2018-06-20T00:35:07.370Z,4.80
2018-06-20T00:37:36.233Z,4.97
2018-06-20T00:40:05.031Z,6.10
2018-06-20T00:42:33.901Z,5.00
2018-06-20T00:45:02.794Z,5.10
2018-06-20T00:47:31.650Z,9.43
2018-06-20T00:50:00.534Z,4.60
2018-06-20T00:52:29.405Z,5.10
2018-06-20T00:54:58.920Z,4.90
2018-06-20T00:57:27.739Z,7.20
2018-06-20T00:59:56.584Z,4.87
2018-06-20T01:02:25.428Z,4.87
2018-06-20T01:04:54.267Z,5.20
2018-06-20T01:07:23.129Z,6.27
2018-06-20T01:09:51.967Z,5.30
2018-06-20T01:12:20.820Z,5.77
2018-06-20T01:14:49.668Z,4.90
2018-06-20T01:17:18.584Z,8.30
2018-06-20T01:19:47.452Z,4.63
2018-06-20T01:22:16.302Z,4.93
2018-06-20T01:24:45.170Z,5.07
2018-06-20T01:27:13.968Z,5.67
2018-06-20T01:29:42.798Z,4.90
2018-06-20T01:32:11.657Z,5.10
2018-06-20T01:34:40.510Z,5.17
2018-06-20T01:37:09.413Z,4.65
2018-06-20T01:39:38.227Z,5.10
2018-06-20T01:42:07.053Z,4.80
2018-06-20T01:44:35.861Z,4.50
2018-06-20T01:47:06.846Z,4.90
2018-06-20T01:49:35.659Z,5.40
2018-06-20T01:52:04.716Z,5.00
2018-06-20T01:54:33.566Z,5.37
2018-06-20T01:57:02.442Z,4.87
2018-06-20T01:59:31.275Z,4.80
2018-06-20T02:02:00.114Z,5.27
2018-06-20T02:04:29.101Z,5.03
2018-06-20T02:06:57.970Z,5.43
2018-06-20T02:09:26.848Z,5.37
2018-06-20T02:11:55.669Z,4.57
2018-06-20T02:14:24.527Z,4.57
2018-06-20T02:16:53.359Z,4.67
2018-06-20T02:19:22.211Z,5.20
2018-06-20T02:21:51.037Z,6.17
2018-06-20T02:24:19.877Z,4.93
2018-06-20T02:26:48.695Z,5.03
2018-06-20T02:29:17.551Z,4.80
2018-06-20T02:31:46.389Z,5.10
2018-06-20T02:34:15.575Z,4.57
2018-06-20T02:36:44.453Z,6.30
2018-06-20T02:39:13.338Z,5.27
2018-06-20T02:41:42.537Z,4.67
2018-06-20T02:44:11.393Z,5.37
2018-06-20T02:46:40.229Z,4.47
2018-06-20T02:49:09.126Z,7.78
2018-06-20T02:51:37.997Z,6.50
2018-06-20T02:54:06.855Z,4.80
2018-06-20T02:56:35.751Z,4.83
2018-06-20T02:59:04.925Z,5.60
2018-06-20T03:01:33.524Z,5.13
2018-06-20T03:04:02.311Z,5.37
2018-06-20T03:06:31.139Z,5.20
2018-06-20T03:09:02.358Z,6.93
2018-06-20T03:11:31.515Z,5.67
2018-06-20T03:14:00.380Z,4.63
2018-06-20T03:16:30.096Z,5.10
2018-06-20T03:18:58.942Z,6.30
2018-06-20T03:21:27.791Z,7.90
2018-06-20T03:23:56.621Z,9.63
2018-06-20T03:26:25.243Z,5.13
2018-06-20T03:28:54.007Z,6.10
2018-06-20T03:31:22.853Z,4.73
2018-06-20T03:33:54.069Z,5.07
2018-06-20T03:36:22.867Z,5.10
2018-06-20T03:38:51.745Z,4.80
2018-06-20T03:41:20.595Z,4.87
2018-06-20T03:43:49.475Z,5.33
2018-06-20T03:46:18.377Z,5.27
2018-06-20T03:48:47.289Z,5.47
2018-06-20T03:51:16.137Z,10.03
2018-06-20T03:53:44.944Z,5.07
2018-06-20T03:56:13.773Z,9.67
2018-06-20T03:58:42.607Z,5.10
2018-06-20T04:01:11.439Z,5.43
2018-06-20T04:03:40.262Z,5.10
2018-06-20T04:06:09.100Z,9.07
2018-06-20T04:08:37.958Z,5.50
2018-06-20T04:11:07.164Z,5.90
2018-06-20T04:13:36.387Z,5.37
2018-06-20T04:16:05.279Z,5.50
2018-06-20T04:18:42.473Z,5.60
2018-06-20T04:21:13.603Z,5.57
2018-06-20T04:23:42.424Z,6.33
2018-06-20T04:26:12.311Z,6.33
2018-06-20T04:28:41.193Z,8.83
2018-06-20T04:31:10.625Z,9.23
2018-06-20T04:33:39.622Z,6.30
2018-06-20T04:36:08.701Z,9.10
2018-06-20T04:38:37.552Z,7.50
2018-06-20T04:41:06.436Z,6.63
2018-06-20T04:43:35.238Z,8.83
2018-06-20T04:46:04.840Z,10.15
2018-06-20T04:48:33.727Z,6.27
2018-06-20T04:51:02.567Z,6.63
2018-06-20T04:53:31.737Z,7.50
2018-06-20T04:56:00.627Z,6.63
2018-06-20T04:58:29.522Z,8.70
2018-06-20T05:00:58.416Z,6.37
2018-06-20T05:03:27.273Z,8.00
2018-06-20T05:05:56.158Z,8.50
2018-06-20T05:08:25.328Z,6.57
2018-06-20T05:10:54.664Z,8.57
2018-06-20T05:13:23.663Z,6.00
2018-06-20T05:15:52.520Z,8.87
2018-06-20T05:18:22.019Z,9.67
2018-06-20T05:20:50.868Z,5.83
2018-06-20T05:23:19.769Z,7.25
2018-06-20T05:25:50.445Z,10.60
2018-06-20T05:28:19.341Z,7.67
2018-06-20T05:30:52.003Z,12.97
2018-06-20T05:33:23.352Z,6.93
2018-06-20T05:35:53.123Z,6.50
2018-06-20T05:38:22.018Z,8.18
2018-06-20T05:40:53.141Z,9.00
2018-06-20T05:43:25.027Z,7.67
2018-06-20T05:45:55.205Z,8.87
2018-06-20T05:48:24.549Z,7.87
2018-06-20T05:50:53.416Z,6.80
2018-06-20T05:53:22.281Z,7.17
2018-06-20T05:55:51.146Z,7.70
2018-06-20T05:58:20.092Z,8.10
2018-06-20T06:00:49.084Z,8.83
2018-06-20T06:03:18.011Z,21.10
2018-06-20T06:05:58.053Z,18.97
2018-06-20T06:08:26.986Z,16.07
2018-06-20T06:10:58.038Z,16.17
2018-06-20T06:13:26.997Z,15.23
2018-06-20T06:15:55.827Z,13.70
2018-06-20T06:18:24.644Z,13.53
2018-06-20T06:20:53.531Z,12.93
2018-06-20T06:23:22.413Z,12.73
2018-06-20T06:25:51.291Z,11.63
2018-06-20T06:28:20.226Z,11.57
2018-06-20T06:30:49.135Z,10.73
2018-06-20T06:33:18.044Z,9.80
2018-06-20T06:35:46.945Z,10.53
2018-06-20T06:38:15.820Z,10.47
2018-06-20T06:40:44.792Z,9.90
2018-06-20T06:43:13.626Z,9.23
2018-06-20T06:45:42.273Z,8.50
2018-06-20T06:48:10.987Z,8.60
2018-06-20T06:50:39.815Z,8.77
2018-06-20T06:53:08.620Z,8.17
2018-06-20T06:55:37.482Z,8.17
2018-06-20T06:58:06.642Z,8.70
2018-06-20T07:00:35.497Z,8.53
2018-06-20T07:03:04.181Z,7.87
2018-06-20T07:05:32.899Z,7.80
2018-06-20T07:08:01.779Z,6.83
2018-06-20T07:10:30.631Z,7.00
2018-06-20T07:12:59.499Z,6.80
2018-06-20T07:15:28.495Z,6.70
2018-06-20T07:17:57.353Z,6.60
2018-06-20T07:20:26.209Z,6.77
2018-06-20T07:22:55.077Z,7.00
2018-06-20T07:25:23.939Z,7.07
2018-06-20T07:27:52.790Z,6.73
2018-06-20T07:30:21.635Z,5.97
2018-06-20T07:32:50.472Z,5.80
2018-06-20T07:35:19.375Z,4.93
2018-06-20T07:37:48.162Z,5.33
2018-06-20T07:40:17.034Z,5.90
2018-06-20T07:42:45.962Z,4.85
2018-06-20T07:45:15.757Z,5.33
2018-06-20T07:47:44.608Z,4.50
2018-06-20T07:50:13.444Z,4.63
2018-06-20T07:52:42.420Z,4.30
2018-06-20T07:55:11.380Z,4.30
2018-06-20T07:57:40.035Z,4.50
2018-06-20T08:00:14.158Z,5.63
2018-06-20T08:02:59.969Z,4.63
2018-06-20T08:05:34.089Z,3.87
2018-06-20T08:08:08.523Z,3.60
2018-06-20T08:10:42.807Z,4.17
2018-06-20T08:13:17.064Z,3.17
2018-06-20T08:15:51.393Z,4.07
2018-06-20T08:18:25.654Z,3.67
2018-06-20T08:20:54.533Z,4.80
2018-06-20T08:23:23.439Z,3.20
2018-06-20T08:25:52.350Z,3.70
2018-06-20T08:28:21.177Z,3.57
2018-06-20T08:30:50.118Z,2.83
2018-06-20T08:33:19.011Z,3.42
2018-06-20T08:35:47.938Z,3.73
2018-06-20T08:38:16.838Z,4.03
2018-06-20T08:40:45.855Z,4.63
2018-06-20T08:43:14.735Z,3.12
2018-06-20T08:45:43.767Z,3.53
2018-06-20T08:48:12.627Z,5.83
2018-06-20T08:50:41.504Z,3.87
2018-06-20T08:53:10.429Z,3.98
2018-06-20T08:55:39.288Z,4.10
2018-06-20T08:58:08.189Z,4.43
2018-06-20T09:00:42.509Z,4.03
2018-06-20T09:03:11.388Z,6.23
2018-06-20T09:05:45.609Z,6.27
2018-06-20T09:08:20.028Z,4.80
2018-06-20T09:10:54.315Z,4.67
2018-06-20T09:13:28.583Z,4.80
2018-06-20T09:16:02.974Z,4.87
2018-06-20T09:18:37.287Z,4.07
2018-06-20T09:21:06.351Z,5.03
2018-06-20T09:23:39.170Z,4.73
2018-06-20T09:26:08.063Z,4.50
2018-06-20T09:28:36.964Z,5.03
2018-06-20T09:31:05.844Z,4.53
2018-06-20T09:33:35.576Z,5.40
2018-06-20T09:36:04.573Z,4.27
2018-06-20T09:38:33.520Z,5.10
2018-06-20T09:41:02.321Z,5.90
2018-06-20T09:43:31.136Z,5.50
2018-06-20T09:46:00.049Z,4.73
2018-06-20T09:48:28.954Z,5.43
2018-06-20T09:50:58.970Z,4.53
2018-06-20T09:53:35.359Z,4.90
2018-06-20T09:56:04.513Z,4.50
2018-06-20T09:58:33.425Z,4.57
2018-06-20T10:01:07.732Z,4.93
2018-06-20T10:03:41.908Z,4.50
2018-06-20T10:06:16.079Z,5.33
2018-06-20T10:08:52.240Z,4.73
2018-06-20T10:11:26.536Z,5.00
2018-06-20T10:14:00.098Z,5.43
2018-06-20T10:16:29.752Z,4.20
2018-06-20T10:18:58.658Z,4.57
2018-06-20T10:21:28.598Z,4.27
2018-06-20T10:23:57.444Z,5.03
2018-06-20T10:26:26.527Z,4.70
2018-06-20T10:28:55.445Z,4.30
2018-06-20T10:31:24.317Z,3.77
2018-06-20T10:33:54.425Z,3.87
2018-06-20T10:36:24.765Z,3.87
2018-06-20T10:38:53.838Z,3.90
2018-06-20T10:41:22.880Z,3.93
2018-06-20T10:43:51.728Z,3.33
2018-06-20T10:46:25.967Z,4.57
2018-06-20T10:48:54.764Z,4.17
2018-06-20T10:54:02.003Z,3.60
2018-06-20T10:56:36.853Z,3.10
2018-06-20T10:59:11.252Z,3.23
2018-06-20T11:01:46.177Z,3.83
2018-06-20T11:04:20.490Z,4.13
2018-06-20T11:06:54.919Z,3.47
2018-06-20T11:09:29.238Z,3.67
2018-06-20T11:12:03.453Z,3.70
2018-06-20T11:14:32.349Z,2.70
2018-06-20T11:17:01.184Z,3.50
2018-06-20T11:19:30.296Z,3.20
2018-06-20T11:21:59.230Z,3.07
2018-06-20T11:24:28.151Z,4.05
2018-06-20T11:26:57.378Z,3.00
2018-06-20T11:29:26.243Z,2.47
2018-06-20T11:31:55.969Z,2.50
2018-06-20T11:34:24.998Z,2.90
2018-06-20T11:36:53.945Z,3.80
2018-06-20T11:39:22.869Z,3.40
2018-06-20T11:41:51.729Z,2.80
2018-06-20T11:44:20.593Z,2.60
2018-06-20T11:46:54.796Z,3.00
2018-06-20T11:49:23.675Z,4.13
2018-06-20T11:51:52.928Z,6.17
2018-06-20T11:54:21.791Z,5.20
2018-06-20T11:56:50.733Z,3.90
2018-06-20T11:59:25.791Z,3.10
2018-06-20T12:02:00.586Z,2.73
2018-06-20T12:04:34.938Z,2.70
2018-06-20T12:07:09.951Z,2.20
2018-06-20T12:09:44.099Z,2.40
2018-06-20T12:12:19.059Z,2.80
2018-06-20T12:14:53.126Z,2.13
2018-06-20T12:17:27.427Z,3.52
2018-06-20T12:20:03.540Z,1.90
2018-06-20T12:22:37.803Z,2.50
2018-06-20T12:25:12.130Z,1.70
2018-06-20T12:27:46.487Z,1.90
2018-06-20T12:30:21.503Z,2.40
2018-06-20T12:32:55.848Z,2.13
2018-06-20T12:35:30.019Z,2.10
2018-06-20T12:38:04.598Z,2.30
2018-06-20T12:40:38.924Z,3.37
2018-06-20T12:43:13.099Z,2.27
2018-06-20T12:45:42.333Z,1.73
2018-06-20T12:48:11.214Z,1.73
2018-06-20T12:50:40.089Z,1.90
2018-06-20T12:53:08.956Z,2.60
2018-06-20T12:55:37.806Z,1.90
2018-06-20T12:58:06.729Z,3.33
2018-06-20T13:00:35.567Z,2.40
2018-06-20T13:03:04.848Z,1.90
2018-06-20T13:05:33.692Z,2.30
2018-06-20T13:08:02.529Z,3.20
2018-06-20T13:10:31.373Z,2.23
2018-06-20T13:13:00.174Z,2.60
2018-06-20T13:15:29.032Z,2.50
2018-06-20T13:17:57.910Z,2.90
2018-06-20T13:20:26.835Z,2.70
2018-06-20T13:22:55.675Z,2.40
2018-06-20T13:25:24.589Z,3.17
2018-06-20T13:27:53.535Z,3.00
2018-06-20T13:30:22.294Z,2.80
2018-06-20T13:32:56.648Z,3.67
2018-06-20T13:35:31.030Z,5.00
2018-06-20T13:38:05.344Z,5.60
2018-06-20T13:42:44.670Z,4.10
2018-06-20T13:45:18.971Z,3.13
2018-06-20T13:47:53.190Z,5.10
2018-06-20T13:50:22.081Z,5.77
2018-06-20T13:52:51.077Z,4.67
2018-06-20T13:55:20.179Z,6.53
2018-06-20T13:57:49.052Z,3.80
2018-06-20T14:00:17.943Z,9.77
2018-06-20T14:02:46.834Z,5.47
2018-06-20T14:05:15.699Z,7.67
2018-06-20T14:07:44.540Z,5.07
2018-06-20T14:10:13.431Z,6.37
2018-06-20T14:12:42.236Z,7.00
2018-06-20T14:15:11.219Z,8.37
2018-06-20T14:17:40.028Z,6.17
2018-06-20T14:20:14.426Z,6.07
2018-06-20T14:22:43.316Z,6.03
2018-06-20T14:25:12.189Z,6.07
2018-06-20T14:27:41.061Z,6.70
2018-06-20T14:30:09.972Z,8.00
2018-06-20T14:33:45.958Z,7.27
2018-06-20T14:36:20.397Z,5.73
2018-06-20T14:38:54.785Z,5.83
2018-06-20T14:41:25.226Z,5.47
2018-06-20T14:43:59.599Z,5.50
2018-06-20T14:46:33.034Z,5.33
2018-06-20T14:49:01.949Z,6.27
2018-06-20T14:51:30.923Z,5.93
2018-06-20T14:53:59.816Z,7.20
2018-06-20T14:56:28.732Z,6.30
2018-06-20T14:58:57.610Z,6.23
2018-06-20T15:01:26.581Z,6.53
2018-06-20T15:03:55.444Z,8.60
2018-06-20T15:06:24.474Z,6.00
2018-06-20T15:08:53.403Z,4.97
2018-06-20T15:11:22.351Z,5.60
2018-06-20T15:13:51.541Z,7.70
2018-06-20T15:16:25.611Z,6.13
2018-06-20T15:18:54.513Z,6.07
2018-06-20T15:21:23.410Z,7.30
2018-06-20T15:23:52.252Z,6.67
2018-06-20T15:26:26.440Z,6.00
2018-06-20T15:29:00.649Z,6.40
2018-06-20T15:31:35.005Z,6.50
2018-06-20T15:34:11.087Z,7.40
2018-06-20T15:37:44.874Z,5.90
2018-06-20T15:40:13.788Z,6.93
2018-06-20T15:42:42.735Z,7.50
2018-06-20T15:45:11.612Z,6.80
2018-06-20T15:47:40.481Z,5.13
2018-06-20T15:50:09.381Z,5.53
2018-06-20T15:52:38.253Z,6.83
2018-06-20T15:55:07.168Z,5.77
2018-06-20T15:57:36.045Z,7.13
2018-06-20T16:00:05.328Z,6.57
2018-06-20T16:02:34.917Z,6.43
2018-06-20T16:05:03.945Z,6.33
2018-06-20T16:07:32.854Z,5.90
2018-06-20T16:10:02.056Z,6.50
2018-06-20T16:12:31.052Z,5.90
2018-06-20T16:14:59.924Z,5.47
2018-06-20T16:17:29.817Z,6.30
2018-06-20T16:20:04.157Z,6.77
2018-06-20T16:22:38.299Z,5.73
2018-06-20T16:25:12.502Z,6.23
2018-06-20T16:27:46.732Z,5.90
2018-06-20T16:30:20.777Z,6.00
2018-06-20T16:32:49.630Z,6.63
2018-06-20T16:35:18.699Z,5.50
2018-06-20T16:37:47.619Z,6.70
2018-06-20T16:40:16.478Z,5.72
2018-06-20T16:42:45.342Z,5.70
2018-06-20T16:45:14.571Z,6.00
2018-06-20T16:47:43.925Z,6.37
2018-06-20T16:50:12.840Z,5.33
2018-06-20T16:52:41.696Z,5.83
2018-06-20T16:55:10.579Z,5.50
2018-06-20T16:57:39.537Z,5.23
2018-06-20T17:00:08.472Z,6.33
2018-06-20T17:02:40.204Z,5.70
2018-06-20T17:05:09.555Z,5.73
2018-06-20T17:07:38.389Z,6.20
2018-06-20T17:10:07.444Z,5.00
2018-06-20T17:12:41.801Z,4.70
2018-06-20T17:15:16.047Z,4.90
2018-06-20T17:17:50.257Z,4.97
2018-06-20T17:20:24.493Z,5.28
2018-06-20T17:22:58.823Z,5.13
2018-06-20T17:25:31.436Z,4.83
2018-06-20T17:28:00.385Z,4.60
2018-06-20T17:30:29.209Z,4.40
2018-06-20T17:32:58.565Z,4.40
2018-06-20T17:35:27.431Z,3.70
2018-06-20T17:37:56.381Z,4.13
2018-06-20T17:40:26.402Z,4.10
2018-06-20T17:42:55.292Z,3.57
2018-06-20T17:45:24.139Z,3.60
2018-06-20T17:47:53.029Z,3.50
2018-06-20T17:50:21.938Z,3.75
2018-06-20T17:52:50.816Z,4.10
2018-06-20T17:55:21.887Z,3.43
2018-06-20T17:57:51.607Z,4.07
2018-06-20T18:00:20.544Z,4.30
2018-06-20T18:02:49.424Z,3.50
2018-06-20T18:05:23.451Z,3.53
2018-06-20T18:07:57.681Z,4.17
2018-06-20T18:10:31.835Z,3.20
2018-06-20T18:13:02.751Z,3.50
2018-06-20T18:15:37.541Z,3.63
2018-06-20T18:18:06.889Z,4.27
2018-06-20T18:20:35.764Z,4.10
2018-06-20T18:23:04.863Z,4.00
2018-06-20T18:25:34.487Z,5.73
2018-06-20T18:28:03.390Z,4.07
2018-06-20T18:30:32.533Z,3.93
2018-06-20T18:33:01.412Z,5.20
2018-06-20T18:35:30.326Z,3.87
2018-06-20T18:37:59.280Z,4.00
2018-06-20T18:40:28.119Z,4.47
2018-06-20T18:42:56.992Z,9.60
2018-06-20T18:45:25.938Z,5.63
2018-06-20T18:48:00.554Z,6.23
2018-06-20T18:50:29.473Z,5.27
2018-06-20T18:52:58.307Z,4.90
2018-06-20T18:55:27.208Z,5.17
2018-06-20T18:58:01.458Z,5.33
2018-06-20T19:00:36.559Z,5.97
2018-06-20T19:03:11.092Z,5.37
2018-06-20T19:05:45.166Z,5.80
2018-06-20T19:08:19.529Z,6.20
2018-06-20T19:10:48.380Z,6.13
2018-06-20T19:13:17.274Z,5.97
2018-06-20T19:15:46.084Z,6.93
2018-06-20T19:18:14.971Z,7.00
2018-06-20T19:20:43.876Z,7.63
2018-06-20T19:23:12.729Z,6.80
2018-06-20T19:25:41.343Z,7.20
2018-06-20T19:28:10.226Z,6.63
2018-06-20T19:30:39.127Z,6.90
2018-06-20T19:33:08.009Z,7.20
2018-06-20T19:35:36.873Z,7.00
2018-06-20T19:38:05.720Z,6.73
2018-06-20T19:40:34.585Z,6.30
2018-06-20T19:43:04.103Z,6.60
2018-06-20T19:45:32.844Z,5.43
2018-06-20T19:48:01.754Z,5.47
2018-06-20T19:50:30.616Z,5.83
2018-06-20T19:52:59.498Z,5.80
2018-06-20T19:55:28.363Z,5.57
2018-06-20T19:57:57.269Z,4.97
2018-06-20T20:00:26.113Z,4.53
2018-06-20T20:02:54.973Z,5.07
2018-06-20T20:05:23.830Z,4.93
2018-06-20T20:07:52.701Z,4.17
2018-06-20T20:10:21.923Z,4.93
2018-06-20T20:12:50.832Z,4.97
2018-06-20T20:15:19.712Z,4.40
2018-06-20T20:17:48.636Z,4.43
2018-06-20T20:20:17.532Z,4.63
2018-06-20T20:22:46.600Z,4.00
2018-06-20T20:25:15.477Z,3.45
2018-06-20T20:27:44.393Z,4.63
2018-06-20T20:30:13.634Z,3.70
2018-06-20T20:32:42.502Z,3.63
2018-06-20T20:35:11.381Z,3.57
2018-06-20T20:37:40.238Z,3.57
2018-06-20T20:40:09.153Z,3.97
2018-06-20T20:42:38.267Z,2.90
2018-06-20T20:45:07.076Z,3.33
2018-06-20T20:47:35.924Z,3.27
2018-06-20T20:50:04.751Z,3.62
2018-06-20T20:52:33.553Z,3.30
2018-06-20T20:55:02.420Z,2.83
2018-06-20T20:57:31.310Z,3.33
2018-06-20T21:00:00.198Z,2.97
2018-06-20T21:02:29.148Z,3.50
2018-06-20T21:04:58.028Z,3.20
2018-06-20T21:07:26.895Z,2.77
2018-06-20T21:09:56.349Z,2.67
2018-06-20T21:12:25.180Z,2.70
2018-06-20T21:14:54.679Z,2.50
2018-06-20T21:17:23.677Z,2.50
2018-06-20T21:19:52.776Z,3.30
2018-06-20T21:22:21.760Z,2.50
2018-06-20T21:24:50.710Z,2.30
2018-06-20T21:27:19.565Z,2.83
2018-06-20T21:29:48.396Z,2.30
2018-06-20T21:32:17.262Z,2.40
2018-06-20T21:34:46.141Z,2.13
2018-06-20T21:37:15.120Z,2.13
2018-06-20T21:39:43.975Z,2.07
2018-06-20T21:42:12.863Z,2.23
2018-06-20T21:44:41.691Z,2.47
2018-06-20T21:47:10.531Z,2.40
2018-06-20T21:49:39.431Z,3.00
2018-06-20T21:52:08.276Z,2.80
2018-06-20T21:54:37.161Z,3.03
2018-06-20T21:57:06.115Z,2.60
2018-06-20T21:59:34.885Z,2.63
2018-06-20T22:02:04.085Z,2.60
2018-06-20T22:04:33.033Z,2.73
2018-06-20T22:07:02.520Z,2.50
2018-06-20T22:09:31.431Z,2.60
2018-06-20T22:12:00.197Z,2.67
2018-06-20T22:14:29.144Z,2.43
2018-06-20T22:16:58.022Z,2.47
2018-06-20T22:19:26.877Z,2.40
2018-06-20T22:21:55.785Z,2.50
2018-06-20T22:24:24.670Z,2.50
2018-06-20T22:26:53.541Z,2.30
2018-06-20T22:29:22.372Z,2.07
2018-06-20T22:31:51.239Z,2.00
2018-06-20T22:34:20.146Z,2.50
2018-06-20T22:36:49.063Z,2.07
2018-06-20T22:39:17.979Z,2.55
2018-06-20T22:41:46.640Z,3.00
2018-06-20T22:44:15.461Z,2.20
2018-06-20T22:46:44.406Z,2.40
2018-06-20T22:49:13.343Z,2.37
2018-06-20T22:51:42.283Z,2.73
2018-06-20T22:54:11.176Z,2.67
2018-06-20T22:56:40.078Z,2.20
2018-06-20T22:59:08.975Z,2.40
2018-06-20T23:01:37.907Z,2.57
2018-06-20T23:04:07.164Z,2.63
2018-06-20T23:06:36.102Z,1.90
2018-06-20T23:09:06.713Z,2.30
2018-06-20T23:11:40.822Z,2.20
2018-06-20T23:14:09.778Z,2.30
2018-06-20T23:16:38.700Z,2.10
2018-06-20T23:19:07.994Z,2.30
2018-06-20T23:21:36.890Z,2.63
2018-06-20T23:24:05.882Z,2.20
2018-06-20T23:26:34.778Z,2.37
2018-06-20T23:29:04.589Z,2.40
2018-06-20T23:31:33.485Z,2.10
2018-06-20T23:34:02.389Z,2.23
2018-06-20T23:36:31.270Z,2.07
2018-06-20T23:39:00.168Z,2.00
2018-06-20T23:41:29.086Z,2.00
2018-06-20T23:43:58.031Z,1.70
2018-06-20T23:46:26.895Z,2.07
2018-06-20T23:48:55.817Z,2.40
2018-06-20T23:51:25.018Z,1.83
2018-06-20T23:53:53.919Z,2.43
2018-06-20T23:56:22.838Z,2.33
2018-06-20T23:58:51.705Z,2.57
